createdAt,value
2023-03-13T00:02:41.420Z,18.77
2023-03-13T00:05:47.833Z,13.03
2023-03-13T00:08:54.170Z,9.87
2023-03-13T00:12:00.581Z,8.23
2023-03-13T00:15:08.007Z,6.13
2023-03-13T00:18:15.879Z,7.73
2023-03-13T00:21:24.332Z,13.93
2023-03-13T00:24:30.949Z,12.07
2023-03-13T00:27:37.589Z,7.17
2023-03-13T00:30:44.370Z,12.23
2023-03-13T00:33:54.264Z,11.53
2023-03-13T00:37:00.597Z,8.57
2023-03-13T00:40:08.330Z,18.83
2023-03-13T00:43:14.806Z,19.73
2023-03-13T00:46:23.436Z,17.27
2023-03-13T00:49:31.263Z,15.33
2023-03-13T00:52:37.822Z,10.37
2023-03-13T00:55:53.922Z,15.07
2023-03-13T00:59:02.061Z,7.90
2023-03-13T01:02:08.369Z,5.67
2023-03-13T01:05:16.154Z,6.23
2023-03-13T01:08:22.612Z,8.40
2023-03-13T01:11:31.365Z,5.27
2023-03-13T01:14:37.868Z,8.93
2023-03-13T01:17:45.658Z,7.30
2023-03-13T01:20:52.922Z,8.93
2023-03-13T01:23:59.595Z,6.33
2023-03-13T01:27:05.944Z,16.83
2023-03-13T01:30:13.666Z,10.90
2023-03-13T01:33:19.751Z,10.60
2023-03-13T01:36:28.634Z,6.83
2023-03-13T01:39:34.798Z,11.03
2023-03-13T01:42:54.506Z,14.33
2023-03-13T01:46:04.075Z,7.27
2023-03-13T01:49:14.478Z,9.20
2023-03-13T01:52:25.874Z,5.17
2023-03-13T01:55:31.916Z,5.80
2023-03-13T01:58:39.238Z,4.87
2023-03-13T02:01:48.590Z,8.47
2023-03-13T02:04:59.796Z,7.93
2023-03-13T02:08:10.817Z,10.37
2023-03-13T02:11:26.023Z,6.70
2023-03-13T02:14:37.070Z,5.30
2023-03-13T02:17:44.366Z,5.70
2023-03-13T02:20:55.371Z,9.97
2023-03-13T02:24:14.831Z,14.87
2023-03-13T02:27:23.011Z,10.30
2023-03-13T02:30:30.299Z,16.73
2023-03-13T02:33:40.636Z,20.73
2023-03-13T02:36:47.616Z,23.83
2023-03-13T02:39:55.143Z,6.07
2023-03-13T02:43:04.697Z,7.80
2023-03-13T02:46:14.323Z,5.53
2023-03-13T02:49:28.353Z,6.23
2023-03-13T02:52:39.319Z,4.87
2023-03-13T02:55:46.081Z,8.57
2023-03-13T02:58:54.454Z,13.50
2023-03-13T03:02:00.756Z,10.90
2023-03-13T03:05:07.659Z,8.60
2023-03-13T03:08:13.903Z,15.17
2023-03-13T03:11:20.354Z,13.37
2023-03-13T03:14:27.782Z,15.07
2023-03-13T03:17:34.120Z,18.80
2023-03-13T03:20:40.094Z,10.27
2023-03-13T03:23:46.116Z,7.13
2023-03-13T03:26:52.519Z,17.47
2023-03-13T03:30:00.029Z,13.67
2023-03-13T03:33:06.393Z,15.93
2023-03-13T03:36:14.590Z,11.67
2023-03-13T03:39:20.879Z,10.40
2023-03-13T03:42:27.365Z,18.73
2023-03-13T03:45:35.007Z,11.10
2023-03-13T03:48:41.212Z,15.93
2023-03-13T03:51:48.753Z,9.73
2023-03-13T03:54:54.977Z,11.57
2023-03-13T03:58:01.185Z,11.43
2023-03-13T04:01:08.998Z,10.60
2023-03-13T04:04:15.277Z,16.57
2023-03-13T04:07:21.465Z,16.07
2023-03-13T04:10:27.406Z,18.00
2023-03-13T04:13:33.400Z,39.33
2023-03-13T04:16:40.812Z,26.77
2023-03-13T04:19:47.088Z,29.73
2023-03-13T04:22:53.277Z,28.43
2023-03-13T04:25:59.302Z,25.67
2023-03-13T04:29:06.514Z,20.13
2023-03-13T04:32:14.209Z,15.40
2023-03-13T04:35:20.547Z,9.43
2023-03-13T04:38:26.599Z,12.67
2023-03-13T04:41:32.983Z,24.83
2023-03-13T04:44:40.053Z,74.10
2023-03-13T04:47:49.249Z,189.83
2023-03-13T04:50:55.623Z,80.77
2023-03-13T04:54:01.714Z,59.80
2023-03-13T04:57:08.205Z,77.57
2023-03-13T05:00:14.990Z,61.07
2023-03-13T05:03:22.709Z,48.37
2023-03-13T05:06:29.022Z,21.87
2023-03-13T05:09:35.084Z,11.00
2023-03-13T05:12:41.009Z,34.73
2023-03-13T05:15:46.963Z,50.60
2023-03-13T05:18:54.383Z,31.10
2023-03-13T05:22:00.824Z,22.20
2023-03-13T05:25:07.532Z,13.67
2023-03-13T05:28:14.023Z,24.80
2023-03-13T05:31:20.331Z,32.57
2023-03-13T05:34:28.287Z,24.37
2023-03-13T05:37:34.914Z,24.17
2023-03-13T05:40:41.354Z,13.47
2023-03-13T05:43:47.997Z,17.83
2023-03-13T05:46:54.442Z,19.90
2023-03-13T05:50:02.283Z,20.60
2023-03-13T05:53:08.792Z,20.47
2023-03-13T05:56:15.216Z,22.67
2023-03-13T05:59:21.507Z,36.33
2023-03-13T06:02:27.870Z,43.70
2023-03-13T06:05:35.862Z,27.47
2023-03-13T06:08:42.327Z,19.43
2023-03-13T06:11:48.561Z,26.60
2023-03-13T06:14:54.961Z,30.67
2023-03-13T06:18:01.428Z,59.53
2023-03-13T06:21:09.176Z,39.30
2023-03-13T06:24:15.574Z,28.20
2023-03-13T06:27:21.728Z,24.93
2023-03-13T06:30:27.994Z,23.17
2023-03-13T06:33:34.533Z,20.87
2023-03-13T06:36:42.306Z,23.03
2023-03-13T06:39:48.444Z,19.67
2023-03-13T06:42:54.721Z,15.50
2023-03-13T06:46:06.411Z,13.27
2023-03-13T06:49:12.735Z,19.17
2023-03-13T06:52:21.238Z,14.43
2023-03-13T06:55:28.333Z,8.63
2023-03-13T06:58:35.187Z,6.23
2023-03-13T07:01:41.498Z,9.27
2023-03-13T07:04:47.956Z,8.33
2023-03-13T07:07:55.752Z,9.33
2023-03-13T07:11:03.885Z,11.83
2023-03-13T07:14:17.009Z,11.10
2023-03-13T07:17:24.164Z,9.37
2023-03-13T07:20:30.368Z,16.57
2023-03-13T07:23:38.034Z,11.80
2023-03-13T07:27:01.546Z,6.77
2023-03-13T07:30:11.556Z,13.57
2023-03-13T07:33:18.230Z,8.30
2023-03-13T07:36:24.410Z,10.33
2023-03-13T07:39:31.874Z,5.93
2023-03-13T07:42:40.819Z,6.10
2023-03-13T07:45:57.889Z,4.43
2023-03-13T07:49:04.407Z,4.20
2023-03-13T07:52:11.629Z,5.30
2023-03-13T07:55:19.658Z,5.30
2023-03-13T07:58:27.001Z,3.67
2023-03-13T08:01:33.552Z,3.63
2023-03-13T08:04:40.161Z,3.77
2023-03-13T08:07:46.734Z,3.43
2023-03-13T08:10:54.931Z,5.47
2023-03-13T08:14:01.612Z,5.17
2023-03-13T08:17:08.071Z,3.53
2023-03-13T08:20:14.838Z,4.13
2023-03-13T08:23:21.240Z,5.17
2023-03-13T08:26:31.190Z,2.43
2023-03-13T08:29:37.702Z,6.63
2023-03-13T08:32:44.354Z,2.73
2023-03-13T08:35:50.702Z,3.37
2023-03-13T08:39:00.285Z,4.33
2023-03-13T08:42:09.820Z,4.17
2023-03-13T08:45:16.291Z,4.57
2023-03-13T08:48:23.050Z,7.60
2023-03-13T08:51:30.316Z,3.67
2023-03-13T08:54:36.523Z,4.80
2023-03-13T08:57:44.518Z,4.00
2023-03-13T09:00:50.926Z,6.73
2023-03-13T09:03:58.049Z,7.90
2023-03-13T09:07:04.801Z,2.63
2023-03-13T09:10:12.134Z,5.33
2023-03-13T09:13:19.846Z,4.97
2023-03-13T09:20:00.137Z,2.97
2023-03-13T09:23:06.837Z,3.30
2023-03-13T09:26:14.729Z,2.87
2023-03-13T09:29:22.816Z,6.03
2023-03-13T09:32:29.429Z,2.70
2023-03-13T09:35:35.918Z,2.67
2023-03-13T09:38:42.637Z,2.50
2023-03-13T09:41:57.030Z,9.87
2023-03-13T09:45:10.432Z,9.53
2023-03-13T09:48:26.230Z,4.57
2023-03-13T09:51:37.485Z,2.53
2023-03-13T09:54:48.838Z,4.87
2023-03-13T09:57:57.716Z,5.70
2023-03-13T10:01:07.178Z,3.73
2023-03-13T10:04:30.529Z,4.53
2023-03-13T10:07:38.192Z,3.23
2023-03-13T10:10:47.556Z,3.87
2023-03-13T10:13:58.210Z,3.30
2023-03-13T10:17:14.824Z,5.27
2023-03-13T10:20:25.805Z,4.27
2023-03-13T10:23:39.965Z,3.20
2023-03-13T10:26:46.096Z,5.80
2023-03-13T10:29:52.213Z,1.90
2023-03-13T10:33:23.454Z,3.07
2023-03-13T10:36:41.791Z,2.57
2023-03-13T10:39:47.985Z,4.37
2023-03-13T10:43:01.239Z,4.23
2023-03-13T10:46:09.898Z,3.10
2023-03-13T10:49:19.551Z,4.27
2023-03-13T10:52:42.619Z,2.87
2023-03-13T10:55:49.114Z,4.57
2023-03-13T10:58:55.147Z,5.33
2023-03-13T11:02:02.670Z,2.63
